createdAt,value
2019-03-10T00:00:09.209Z,24.98
2019-03-10T00:02:38.326Z,24.50
2019-03-10T00:05:07.645Z,20.57
2019-03-10T00:07:36.687Z,18.80
2019-03-10T00:10:07.000Z,18.98
2019-03-10T00:12:36.117Z,17.25
2019-03-10T00:15:05.392Z,16.85
2019-03-10T00:17:34.465Z,17.10
2019-03-10T00:20:03.553Z,16.15
2019-03-10T00:22:32.626Z,16.52
2019-03-10T00:25:01.823Z,17.35
2019-03-10T00:27:31.607Z,17.12
2019-03-10T00:30:00.625Z,16.95
2019-03-10T00:32:29.731Z,17.05
2019-03-10T00:34:59.159Z,16.85
2019-03-10T00:37:28.106Z,17.23
2019-03-10T00:42:14.305Z,17.48
2019-03-10T00:45:14.364Z,23.30
2019-03-10T00:47:55.104Z,38.15
2019-03-10T00:50:33.630Z,28.40
2019-03-10T00:53:02.845Z,50.25
2019-03-10T00:55:31.911Z,30.85
2019-03-10T00:58:01.115Z,33.90
2019-03-10T01:00:30.360Z,30.23
2019-03-10T01:19:44.728Z,27.60
2019-03-10T01:22:13.770Z,26.55
2019-03-10T01:41:27.585Z,23.85
2019-03-10T01:43:56.674Z,23.10
2019-03-10T01:46:25.727Z,24.67
2019-03-10T01:48:54.717Z,24.20
2019-03-10T01:51:23.851Z,23.10
2019-03-10T01:53:52.878Z,22.85
2019-03-10T01:56:22.488Z,21.37
2019-03-10T01:58:51.543Z,21.97
2019-03-10T02:01:20.708Z,21.15
2019-03-10T02:03:49.704Z,20.80
2019-03-10T02:06:18.777Z,20.97
2019-03-10T02:08:47.898Z,19.82
2019-03-10T02:11:17.090Z,18.87
2019-03-10T02:13:46.216Z,19.73
2019-03-10T02:16:15.304Z,20.15
2019-03-10T02:18:44.396Z,20.35
2019-03-10T02:21:13.514Z,19.60
2019-03-10T02:23:42.673Z,20.02
2019-03-10T02:26:11.697Z,20.62
2019-03-10T02:28:41.533Z,19.85
2019-03-10T02:31:10.588Z,19.25
2019-03-10T02:33:39.687Z,20.27
2019-03-10T02:36:09.282Z,19.75
2019-03-10T02:38:38.285Z,20.08
2019-03-10T02:41:07.382Z,23.50
2019-03-10T02:43:36.511Z,25.32
2019-03-10T02:46:05.573Z,27.00
2019-03-10T02:48:34.668Z,24.47
2019-03-10T02:51:03.746Z,22.55
2019-03-10T02:53:35.570Z,23.38
2019-03-10T02:56:04.666Z,23.85
2019-03-10T02:58:33.609Z,23.18
2019-03-10T03:01:02.650Z,21.75
2019-03-10T03:03:31.751Z,18.82
2019-03-10T03:06:00.738Z,16.93
2019-03-10T03:08:29.870Z,17.07
2019-03-10T03:10:58.933Z,16.65
2019-03-10T03:13:27.990Z,23.35
2019-03-10T03:15:57.061Z,21.70
2019-03-10T03:18:26.202Z,20.40
2019-03-10T03:20:55.271Z,22.00
2019-03-10T03:23:24.368Z,19.98
2019-03-10T03:25:53.377Z,18.32
2019-03-10T03:28:22.472Z,18.62
2019-03-10T03:30:51.572Z,17.37
2019-03-10T03:33:20.702Z,16.82
2019-03-10T03:35:55.235Z,17.70
2019-03-10T03:38:28.765Z,17.75
2019-03-10T03:41:00.553Z,18.00
2019-03-10T03:43:29.673Z,16.17
2019-03-10T03:45:59.563Z,17.10
2019-03-10T03:48:29.626Z,17.02
2019-03-10T03:50:58.702Z,17.85
2019-03-10T03:53:27.686Z,16.90
2019-03-10T03:55:56.963Z,17.27
2019-03-10T03:58:26.115Z,17.92
2019-03-10T04:01:00.541Z,17.20
2019-03-10T04:03:29.589Z,17.30
2019-03-10T04:05:58.676Z,17.90
2019-03-10T04:08:27.669Z,16.75
2019-03-10T04:10:56.760Z,17.25
2019-03-10T04:13:25.877Z,17.27
2019-03-10T04:15:55.032Z,17.48
2019-03-10T04:18:24.247Z,17.40
2019-03-10T04:20:53.247Z,16.90
2019-03-10T04:23:22.397Z,16.60
2019-03-10T04:25:51.439Z,16.52
2019-03-10T04:28:20.452Z,15.88
2019-03-10T04:30:55.771Z,16.20
2019-03-10T04:33:24.901Z,16.65
2019-03-10T04:52:38.657Z,13.53
2019-03-10T04:55:13.105Z,14.40
2019-03-10T04:57:46.311Z,14.95
2019-03-10T05:00:15.386Z,15.53
2019-03-10T05:02:44.408Z,15.72
2019-03-10T05:05:13.481Z,15.13
2019-03-10T05:07:42.500Z,12.82
2019-03-10T05:26:56.368Z,8.70
2019-03-10T05:46:10.503Z,6.95
2019-03-10T05:48:39.583Z,7.60
2019-03-10T05:51:08.629Z,7.05
2019-03-10T05:53:37.620Z,7.67
2019-03-10T05:56:06.692Z,7.75
2019-03-10T05:58:35.709Z,8.58
2019-03-10T06:01:04.612Z,7.35
2019-03-10T06:03:33.644Z,7.50
2019-03-10T06:06:02.701Z,7.75
2019-03-10T06:08:31.793Z,8.43
2019-03-10T06:11:00.805Z,8.25
2019-03-10T06:30:15.732Z,7.25
2019-03-10T06:32:44.754Z,7.80
2019-03-10T06:35:14.437Z,7.20
2019-03-10T06:37:43.492Z,7.15
2019-03-10T06:40:12.618Z,7.75
2019-03-10T06:42:41.690Z,8.43
2019-03-10T06:45:10.865Z,10.03
2019-03-10T06:47:39.962Z,10.78
2019-03-10T06:50:12.249Z,13.22
2019-03-10T06:52:39.520Z,12.43
2019-03-10T06:55:08.709Z,11.40
2019-03-10T07:14:24.882Z,9.45
2019-03-10T07:16:57.452Z,8.70
2019-03-10T07:19:26.598Z,8.33
2019-03-10T07:21:57.456Z,9.40
2019-03-10T07:24:27.388Z,8.60
2019-03-10T07:26:57.090Z,8.35
2019-03-10T07:29:29.161Z,7.50
2019-03-10T07:32:02.227Z,8.28
2019-03-10T07:57:13.894Z,7.47
2019-03-10T07:59:50.189Z,5.80
2019-03-10T08:02:24.045Z,5.70
2019-03-10T08:05:09.366Z,4.20
2019-03-10T08:26:56.836Z,3.70
2019-03-10T08:31:34.160Z,2.27
2019-03-10T08:50:53.556Z,7.73
2019-03-10T08:53:28.689Z,2.50
2019-03-10T08:56:04.555Z,2.20
2019-03-10T08:58:37.101Z,3.00
2019-03-10T09:02:15.028Z,2.93
2019-03-10T09:04:53.218Z,2.60
2019-03-10T09:07:58.648Z,2.17
2019-03-10T09:10:36.693Z,1.90
2019-03-10T09:13:11.110Z,3.00
2019-03-10T09:15:50.180Z,4.20
2019-03-10T09:19:27.112Z,2.30
2019-03-10T09:22:03.421Z,3.10
2019-03-10T09:25:09.661Z,6.40
2019-03-10T09:28:16.265Z,2.40
2019-03-10T09:30:50.405Z,2.13
2019-03-10T09:33:28.686Z,2.20
2019-03-10T09:36:08.724Z,2.50
2019-03-10T09:38:54.906Z,2.70
2019-03-10T09:42:27.900Z,2.10
2019-03-10T09:45:02.117Z,2.03
2019-03-10T09:47:40.060Z,2.17
2019-03-10T09:50:18.576Z,1.97
2019-03-10T09:55:01.923Z,2.47
2019-03-10T09:57:36.048Z,2.60
2019-03-10T10:00:12.902Z,3.17
2019-03-10T10:04:51.495Z,2.50
2019-03-10T10:07:25.731Z,2.30
2019-03-10T10:10:02.006Z,11.87
2019-03-10T10:12:35.339Z,3.13
2019-03-10T10:16:10.581Z,3.17
2019-03-10T10:38:04.603Z,13.43
2019-03-10T10:41:37.826Z,9.00
2019-03-10T10:45:10.026Z,2.50
2019-03-10T10:47:50.997Z,2.30
2019-03-10T10:51:24.232Z,1.97
2019-03-10T10:54:03.441Z,2.50
2019-03-10T10:56:46.487Z,1.90
2019-03-10T10:59:24.675Z,2.03
2019-03-10T11:02:14.524Z,3.00
2019-03-10T11:04:51.502Z,1.67
2019-03-10T11:07:27.697Z,2.43
2019-03-10T11:10:03.866Z,2.07
2019-03-10T11:12:47.006Z,2.37
2019-03-10T11:15:21.917Z,2.77
2019-03-10T11:18:08.903Z,2.07
2019-03-10T11:23:32.386Z,2.30
2019-03-10T11:26:09.540Z,2.20
2019-03-10T11:28:47.508Z,2.10
2019-03-10T11:31:24.558Z,2.73
2019-03-10T11:33:57.697Z,2.20
2019-03-10T11:36:37.792Z,3.80
2019-03-10T11:39:16.316Z,3.27
2019-03-10T11:41:50.613Z,2.13
2019-03-10T11:44:34.588Z,2.13
2019-03-10T11:47:07.710Z,2.30
2019-03-10T11:49:47.766Z,2.03
2019-03-10T11:52:22.970Z,1.80
2019-03-10T11:55:28.347Z,1.30
2019-03-10T11:58:01.535Z,2.10
2019-03-10T12:00:41.600Z,1.93
2019-03-10T12:03:16.764Z,1.90
2019-03-10T12:07:58.325Z,1.90
2019-03-10T12:10:27.579Z,2.00
2019-03-10T12:12:56.577Z,1.67
2019-03-10T12:15:25.721Z,2.07
2019-03-10T12:17:54.695Z,2.17
2019-03-10T12:20:23.760Z,1.90
2019-03-10T12:22:52.812Z,1.83
2019-03-10T12:25:21.949Z,2.10
2019-03-10T12:27:50.983Z,2.27
2019-03-10T12:30:20.036Z,1.90
2019-03-10T12:32:49.073Z,1.70
2019-03-10T12:35:18.108Z,1.97
2019-03-10T12:37:47.859Z,2.00
2019-03-10T12:40:16.845Z,1.90
2019-03-10T12:42:45.909Z,1.57
2019-03-10T12:45:15.038Z,7.20
2019-03-10T12:47:44.116Z,19.60
2019-03-10T12:50:13.244Z,2.10
2019-03-10T12:52:48.635Z,3.00
2019-03-10T12:55:17.714Z,1.80
2019-03-10T12:57:46.635Z,1.90
2019-03-10T13:00:15.752Z,2.07
2019-03-10T13:02:44.792Z,2.53
2019-03-10T13:05:13.951Z,2.07
2019-03-10T13:07:43.012Z,2.43
2019-03-10T13:10:12.824Z,2.00
2019-03-10T13:12:41.214Z,2.27
2019-03-10T13:15:10.697Z,2.10
2019-03-10T13:17:39.728Z,2.40
2019-03-10T13:20:09.070Z,2.50
2019-03-10T13:22:38.076Z,2.07
2019-03-10T13:25:07.609Z,2.80
2019-03-10T13:27:36.659Z,2.50
2019-03-10T13:46:51.835Z,2.40
2019-03-10T13:49:21.589Z,2.33
2019-03-10T13:51:50.687Z,2.40
2019-03-10T13:54:19.827Z,2.13
2019-03-10T13:56:48.889Z,2.17
2019-03-10T13:59:17.978Z,2.83
2019-03-10T14:01:47.696Z,2.40
2019-03-10T14:04:16.807Z,2.80
2019-03-10T14:06:45.984Z,2.30
2019-03-10T14:09:14.974Z,24.57
2019-03-10T14:11:44.070Z,2.93
2019-03-10T14:14:13.213Z,2.70
2019-03-10T14:16:42.507Z,2.97
2019-03-10T14:19:11.613Z,3.00
2019-03-10T14:21:40.682Z,2.93
2019-03-10T14:24:09.986Z,2.27
2019-03-10T14:26:39.109Z,2.30
2019-03-10T14:29:08.173Z,2.17
2019-03-10T14:31:37.109Z,2.40
2019-03-10T14:34:06.197Z,2.27
2019-03-10T14:36:35.258Z,2.03
2019-03-10T14:39:05.109Z,2.33
2019-03-10T14:41:34.149Z,2.60
2019-03-10T14:44:03.321Z,2.23
2019-03-10T14:46:32.393Z,2.33
2019-03-10T14:49:01.460Z,1.93
2019-03-10T14:51:30.545Z,2.37
2019-03-10T14:53:59.709Z,2.30
2019-03-10T14:56:28.937Z,4.90
2019-03-10T14:58:57.758Z,2.40
2019-03-10T15:01:27.019Z,2.40
2019-03-10T15:03:56.040Z,3.10
2019-03-10T15:06:25.178Z,2.50
2019-03-10T15:08:54.519Z,2.50
2019-03-10T15:11:23.627Z,6.00
2019-03-10T15:13:53.046Z,9.23
2019-03-10T15:16:22.304Z,5.33
2019-03-10T15:18:51.385Z,9.70
2019-03-10T15:21:20.413Z,3.00
2019-03-10T15:23:49.532Z,2.70
2019-03-10T15:26:19.014Z,12.80
2019-03-10T15:28:50.377Z,25.23
2019-03-10T15:31:17.448Z,6.90
2019-03-10T15:33:46.628Z,9.37
2019-03-10T15:36:20.237Z,3.50
2019-03-10T15:38:45.156Z,2.10
2019-03-10T15:41:14.228Z,2.90
2019-03-10T15:43:43.329Z,2.90
2019-03-10T15:46:12.441Z,3.80
2019-03-10T15:48:41.404Z,2.47
2019-03-10T15:51:11.135Z,2.60
2019-03-10T15:53:40.236Z,2.70
2019-03-10T15:56:09.386Z,2.13
2019-03-10T15:58:38.402Z,2.17
2019-03-10T16:01:07.272Z,2.10
2019-03-10T16:03:36.393Z,1.97
2019-03-10T16:06:05.701Z,10.27
2019-03-10T16:08:34.817Z,2.00
2019-03-10T16:11:03.864Z,2.00
2019-03-10T16:13:32.972Z,2.00
2019-03-10T16:16:01.971Z,2.87
2019-03-10T16:18:30.980Z,2.50
2019-03-10T16:21:00.190Z,2.80
2019-03-10T16:23:29.340Z,2.83
2019-03-10T16:25:58.550Z,3.07
2019-03-10T16:28:27.657Z,3.47
2019-03-10T16:30:56.768Z,3.17
2019-03-10T16:33:25.852Z,2.90
2019-03-10T16:35:55.072Z,3.03
2019-03-10T16:38:24.145Z,2.30
2019-03-10T16:40:53.248Z,2.30
2019-03-10T16:43:22.361Z,2.57
2019-03-10T16:45:51.454Z,2.30
2019-03-10T16:48:20.560Z,2.23
2019-03-10T16:50:49.623Z,2.57
2019-03-10T16:53:18.778Z,9.07
2019-03-10T16:55:47.823Z,48.07
2019-03-10T16:58:17.011Z,3.10
2019-03-10T17:00:46.375Z,2.97
2019-03-10T17:03:15.421Z,3.00
2019-03-10T17:05:45.153Z,2.93
2019-03-10T17:08:14.041Z,3.13
2019-03-10T17:10:43.185Z,3.00
2019-03-10T17:13:12.061Z,3.03
2019-03-10T17:15:41.133Z,5.63
2019-03-10T17:18:10.178Z,4.30
2019-03-10T17:20:41.454Z,3.70
2019-03-10T17:23:10.754Z,4.20
2019-03-10T17:25:40.668Z,4.13
2019-03-10T17:28:09.808Z,4.20
2019-03-10T17:30:38.774Z,4.77
2019-03-10T17:33:07.895Z,13.33
2019-03-10T17:35:37.055Z,19.13
2019-03-10T17:38:06.177Z,16.53
2019-03-10T17:40:35.114Z,14.33
2019-03-10T17:43:04.285Z,15.10
2019-03-10T17:45:33.399Z,7.10
2019-03-10T17:48:02.540Z,7.90
2019-03-10T17:50:31.699Z,7.27
2019-03-10T17:53:00.829Z,6.47
2019-03-10T17:55:29.788Z,5.57
2019-03-10T17:57:58.845Z,5.50
2019-03-10T18:00:28.016Z,7.30
2019-03-10T18:19:41.459Z,13.00
2019-03-10T18:22:10.593Z,13.87
2019-03-10T18:41:24.561Z,15.47
2019-03-10T18:43:53.573Z,15.50
2019-03-10T18:46:22.608Z,17.53
2019-03-10T18:48:51.773Z,28.37
2019-03-10T18:51:21.026Z,11.73
2019-03-10T18:53:50.096Z,9.70
2019-03-10T18:56:19.145Z,8.20
2019-03-10T18:58:48.400Z,7.80
2019-03-10T19:01:17.506Z,7.60
2019-03-10T19:03:46.645Z,7.33
2019-03-10T19:06:15.689Z,8.13
2019-03-10T19:08:44.785Z,9.00
2019-03-10T19:11:13.728Z,9.07
2019-03-10T19:13:42.793Z,9.43
2019-03-10T19:16:11.908Z,10.30
2019-03-10T19:18:41.007Z,11.07
2019-03-10T19:21:09.957Z,11.60
2019-03-10T19:23:39.100Z,19.23
2019-03-10T19:26:08.328Z,17.93
2019-03-10T19:28:37.347Z,14.03
2019-03-10T19:31:06.603Z,13.00
2019-03-10T19:33:35.772Z,13.43
2019-03-10T19:36:04.941Z,19.40
2019-03-10T19:38:33.938Z,17.03
2019-03-10T19:57:47.149Z,17.60
2019-03-10T20:00:16.883Z,18.13
2019-03-10T20:02:46.006Z,18.00
2019-03-10T20:05:15.247Z,18.70
2019-03-10T20:07:45.208Z,17.87
2019-03-10T20:10:14.716Z,20.23
2019-03-10T20:12:43.854Z,21.90
2019-03-10T20:15:14.595Z,23.80
2019-03-10T20:17:43.571Z,21.37
2019-03-10T20:20:14.338Z,20.40
2019-03-10T20:22:43.339Z,17.87
2019-03-10T20:25:12.537Z,16.10
2019-03-10T20:27:41.698Z,17.70
2019-03-10T20:30:13.331Z,65.83
2019-03-10T20:32:42.414Z,15.47
2019-03-10T20:35:11.554Z,15.77
2019-03-10T20:37:40.658Z,14.00
2019-03-10T20:40:10.833Z,14.83
2019-03-10T20:42:39.924Z,19.77
2019-03-10T20:45:09.020Z,27.20
2019-03-10T20:47:38.221Z,18.20
2019-03-10T20:50:08.117Z,13.97
2019-03-10T20:52:37.503Z,15.13
2019-03-10T20:55:06.977Z,7.33
2019-03-10T20:57:36.052Z,20.30
2019-03-10T21:00:05.965Z,11.30
2019-03-10T21:02:35.064Z,7.50
2019-03-10T21:05:04.489Z,4.10
2019-03-10T21:07:33.582Z,4.17
2019-03-10T21:10:02.681Z,6.80
2019-03-10T21:12:39.817Z,9.57
2019-03-10T21:15:01.189Z,13.13
2019-03-10T21:17:30.266Z,14.77
2019-03-10T21:19:59.947Z,25.70
2019-03-10T21:22:29.125Z,21.80
2019-03-10T21:24:58.144Z,19.67
2019-03-10T21:27:28.333Z,19.57
2019-03-10T21:29:58.079Z,19.80
2019-03-10T21:32:27.181Z,18.57
2019-03-10T21:34:56.277Z,19.70
2019-03-10T21:37:25.422Z,18.27
2019-03-10T21:39:54.522Z,16.50
2019-03-10T21:42:23.664Z,21.40
2019-03-10T21:44:53.024Z,21.07
2019-03-10T21:47:22.065Z,22.13
2019-03-10T21:49:51.205Z,22.87
2019-03-10T21:52:20.517Z,22.13
2019-03-10T21:54:49.549Z,20.03
2019-03-10T21:57:18.676Z,20.87
2019-03-10T21:59:47.780Z,15.33
2019-03-10T22:02:16.879Z,9.00
2019-03-10T22:04:45.931Z,9.33
2019-03-10T22:07:15.102Z,6.73
2019-03-10T22:09:44.333Z,5.90
2019-03-10T22:12:13.432Z,5.20
2019-03-10T22:14:42.563Z,5.30
2019-03-10T22:17:11.617Z,4.90
2019-03-10T22:19:40.716Z,4.87
2019-03-10T22:22:09.869Z,4.70
2019-03-10T22:24:39.077Z,5.07
2019-03-10T22:27:08.134Z,5.50
2019-03-10T22:29:37.245Z,5.30
2019-03-10T22:32:06.216Z,8.23
2019-03-10T22:34:35.390Z,5.60
2019-03-10T22:37:04.237Z,6.00
2019-03-10T22:39:33.333Z,5.53
2019-03-10T22:42:02.490Z,6.63
2019-03-10T22:44:31.658Z,8.47
2019-03-10T22:47:00.827Z,9.47
2019-03-10T22:49:29.886Z,10.20
2019-03-10T22:51:59.020Z,10.97
2019-03-10T22:54:28.178Z,9.93
2019-03-10T22:56:57.278Z,10.37
2019-03-10T22:59:26.429Z,8.70
2019-03-10T23:01:55.466Z,9.37
2019-03-10T23:04:24.534Z,9.17
2019-03-10T23:06:53.613Z,9.47
2019-03-10T23:09:22.688Z,9.53
2019-03-10T23:11:52.049Z,8.93
2019-03-10T23:14:21.138Z,8.87
2019-03-10T23:16:52.236Z,12.23
2019-03-10T23:19:19.109Z,15.63
2019-03-10T23:21:48.153Z,14.30
2019-03-10T23:24:17.304Z,14.53
2019-03-10T23:26:46.380Z,16.40
2019-03-10T23:29:16.049Z,11.70
2019-03-10T23:31:45.140Z,11.10
2019-03-10T23:34:14.224Z,8.93
2019-03-10T23:36:43.371Z,10.20
2019-03-10T23:39:12.746Z,9.50
2019-03-10T23:41:41.926Z,9.07
2019-03-10T23:44:11.076Z,12.23
2019-03-10T23:46:40.177Z,9.43
2019-03-10T23:49:09.269Z,8.60
2019-03-10T23:51:39.049Z,8.20
2019-03-10T23:54:08.245Z,9.27
2019-03-10T23:56:37.386Z,11.73
2019-03-10T23:59:07.185Z,9.83
